sensor_id;sensor_type;location;lat;lon;timestamp;P1;durP1;ratioP1;P2;durP2;ratioP2
3046;SDS011;1533;44.816;20.420;2023-04-23T00:01:44;23.63;;;16.37;;
3046;SDS011;1533;44.816;20.420;2023-04-23T00:04:19;26.97;;;15.97;;
3046;SDS011;1533;44.816;20.420;2023-04-23T00:07:05;22.07;;;17.30;;
3046;SDS011;1533;44.816;20.420;2023-04-23T00:09:34;21.17;;;17.53;;
3046;SDS011;1533;44.816;20.420;2023-04-23T00:12:16;22.57;;;15.90;;
3046;SDS011;1533;44.816;20.420;2023-04-23T00:14:49;19.83;;;14.47;;
3046;SDS011;1533;44.816;20.420;2023-04-23T00:17:18;21.23;;;15.60;;
3046;SDS011;1533;44.816;20.420;2023-04-23T00:20:06;21.23;;;16.63;;
3046;SDS011;1533;44.816;20.420;2023-04-23T00:22:42;25.60;;;16.30;;
3046;SDS011;1533;44.816;20.420;2023-04-23T00:25:09;23.97;;;18.10;;
3046;SDS011;1533;44.816;20.420;2023-04-23T00:27:44;27.87;;;18.83;;
3046;SDS011;1533;44.816;20.420;2023-04-23T00:30:29;22.83;;;18.10;;
3046;SDS011;1533;44.816;20.420;2023-04-23T00:33:05;21.00;;;17.63;;
3046;SDS011;1533;44.816;20.420;2023-04-23T00:35:42;24.57;;;16.33;;
3046;SDS011;1533;44.816;20.420;2023-04-23T00:38:15;22.40;;;16.70;;
3046;SDS011;1533;44.816;20.420;2023-04-23T00:40:51;21.70;;;17.20;;
3046;SDS011;1533;44.816;20.420;2023-04-23T00:43:21;26.23;;;17.73;;
3046;SDS011;1533;44.816;20.420;2023-04-23T00:45:52;28.37;;;18.67;;
3046;SDS011;1533;44.816;20.420;2023-04-23T00:48:22;24.43;;;16.30;;
3046;SDS011;1533;44.816;20.420;2023-04-23T00:50:58;23.80;;;18.00;;
3046;SDS011;1533;44.816;20.420;2023-04-23T00:53:29;26.30;;;19.43;;
3046;SDS011;1533;44.816;20.420;2023-04-23T00:56:04;27.57;;;18.87;;
3046;SDS011;1533;44.816;20.420;2023-04-23T00:58:41;28.13;;;19.57;;
3046;SDS011;1533;44.816;20.420;2023-04-23T01:01:23;23.03;;;19.80;;
3046;SDS011;1533;44.816;20.420;2023-04-23T01:03:59;26.03;;;19.17;;
3046;SDS011;1533;44.816;20.420;2023-04-23T01:06:29;26.53;;;19.90;;
3046;SDS011;1533;44.816;20.420;2023-04-23T01:09:01;27.00;;;20.87;;
3046;SDS011;1533;44.816;20.420;2023-04-23T01:11:41;28.20;;;20.17;;
3046;SDS011;1533;44.816;20.420;2023-04-23T01:14:16;31.47;;;20.63;;
3046;SDS011;1533;44.816;20.420;2023-04-23T01:16:44;25.70;;;19.77;;
3046;SDS011;1533;44.816;20.420;2023-04-23T01:19:22;27.57;;;19.50;;
3046;SDS011;1533;44.816;20.420;2023-04-23T01:21:52;25.90;;;19.90;;
3046;SDS011;1533;44.816;20.420;2023-04-23T01:24:19;27.77;;;20.23;;
3046;SDS011;1533;44.816;20.420;2023-04-23T01:26:47;25.53;;;18.63;;
3046;SDS011;1533;44.816;20.420;2023-04-23T01:29:19;23.60;;;18.80;;
3046;SDS011;1533;44.816;20.420;2023-04-23T01:31:56;23.00;;;18.43;;
3046;SDS011;1533;44.816;20.420;2023-04-23T01:34:36;27.13;;;21.80;;
3046;SDS011;1533;44.816;20.420;2023-04-23T01:37:17;31.37;;;21.90;;
3046;SDS011;1533;44.816;20.420;2023-04-23T01:39:48;24.10;;;19.93;;
3046;SDS011;1533;44.816;20.420;2023-04-23T01:42:16;29.80;;;20.00;;
3046;SDS011;1533;44.816;20.420;2023-04-23T01:44:44;19.77;;;17.57;;
3046;SDS011;1533;44.816;20.420;2023-04-23T01:47:21;30.27;;;18.70;;
3046;SDS011;1533;44.816;20.420;2023-04-23T01:49:49;26.20;;;18.70;;
3046;SDS011;1533;44.816;20.420;2023-04-23T01:52:16;25.27;;;20.20;;
3046;SDS011;1533;44.816;20.420;2023-04-23T01:54:48;26.77;;;19.67;;
3046;SDS011;1533;44.816;20.420;2023-04-23T01:57:19;36.97;;;20.90;;
3046;SDS011;1533;44.816;20.420;2023-04-23T01:59:55;32.70;;;20.03;;
3046;SDS011;1533;44.816;20.420;2023-04-23T02:02:36;29.80;;;20.00;;
3046;SDS011;1533;44.816;20.420;2023-04-23T02:05:11;26.47;;;20.33;;
3046;SDS011;1533;44.816;20.420;2023-04-23T02:07:54;25.10;;;20.20;;
3046;SDS011;1533;44.816;20.420;2023-04-23T02:10:27;25.87;;;20.10;;
3046;SDS011;1533;44.816;20.420;2023-04-23T02:12:57;26.70;;;18.37;;
3046;SDS011;1533;44.816;20.420;2023-04-23T02:15:26;26.40;;;17.70;;
3046;SDS011;1533;44.816;20.420;2023-04-23T02:17:55;20.93;;;16.80;;
3046;SDS011;1533;44.816;20.420;2023-04-23T02:20:26;17.67;;;14.27;;
3046;SDS011;1533;44.816;20.420;2023-04-23T02:22:57;19.10;;;13.80;;
3046;SDS011;1533;44.816;20.420;2023-04-23T02:25:26;19.60;;;15.40;;
3046;SDS011;1533;44.816;20.420;2023-04-23T02:28:07;19.77;;;13.60;;
3046;SDS011;1533;44.816;20.420;2023-04-23T02:30:40;18.23;;;14.20;;
3046;SDS011;1533;44.816;20.420;2023-04-23T02:33:18;13.83;;;11.97;;
3046;SDS011;1533;44.816;20.420;2023-04-23T02:35:45;17.20;;;11.97;;
3046;SDS011;1533;44.816;20.420;2023-04-23T02:38:16;20.43;;;12.27;;
3046;SDS011;1533;44.816;20.420;2023-04-23T02:40:48;14.60;;;12.73;;
3046;SDS011;1533;44.816;20.420;2023-04-23T02:43:19;16.97;;;11.90;;
3046;SDS011;1533;44.816;20.420;2023-04-23T02:45:48;15.37;;;12.43;;
3046;SDS011;1533;44.816;20.420;2023-04-23T02:48:18;16.97;;;13.63;;
3046;SDS011;1533;44.816;20.420;2023-04-23T02:50:52;15.93;;;11.60;;
3046;SDS011;1533;44.816;20.420;2023-04-23T02:53:21;14.90;;;11.73;;
3046;SDS011;1533;44.816;20.420;2023-04-23T02:55:48;16.13;;;13.30;;
3046;SDS011;1533;44.816;20.420;2023-04-23T02:58:24;14.97;;;12.83;;
3046;SDS011;1533;44.816;20.420;2023-04-23T03:00:54;17.03;;;12.30;;
3046;SDS011;1533;44.816;20.420;2023-04-23T03:03:27;12.43;;;10.33;;
3046;SDS011;1533;44.816;20.420;2023-04-23T03:05:57;17.30;;;12.63;;
3046;SDS011;1533;44.816;20.420;2023-04-23T03:08:29;16.47;;;13.70;;
3046;SDS011;1533;44.816;20.420;2023-04-23T03:10:57;23.57;;;15.80;;
3046;SDS011;1533;44.816;20.420;2023-04-23T03:13:41;20.20;;;15.53;;
3046;SDS011;1533;44.816;20.420;2023-04-23T03:16:10;19.00;;;14.40;;
3046;SDS011;1533;44.816;20.420;2023-04-23T03:18:41;17.57;;;12.50;;
3046;SDS011;1533;44.816;20.420;2023-04-23T03:21:20;15.80;;;12.77;;
3046;SDS011;1533;44.816;20.420;2023-04-23T03:23:54;14.10;;;11.83;;
3046;SDS011;1533;44.816;20.420;2023-04-23T03:26:22;14.50;;;12.03;;
3046;SDS011;1533;44.816;20.420;2023-04-23T03:29:01;15.97;;;11.90;;
3046;SDS011;1533;44.816;20.420;2023-04-23T03:31:33;14.20;;;11.10;;
3046;SDS011;1533;44.816;20.420;2023-04-23T03:34:00;14.40;;;11.17;;
3046;SDS011;1533;44.816;20.420;2023-04-23T03:36:29;18.00;;;11.27;;
3046;SDS011;1533;44.816;20.420;2023-04-23T03:38:59;14.90;;;11.67;;
3046;SDS011;1533;44.816;20.420;2023-04-23T03:41:28;16.53;;;11.07;;
3046;SDS011;1533;44.816;20.420;2023-04-23T03:44:04;13.20;;;10.40;;
3046;SDS011;1533;44.816;20.420;2023-04-23T03:46:46;12.53;;;11.10;;
3046;SDS011;1533;44.816;20.420;2023-04-23T03:49:13;16.40;;;10.20;;
3046;SDS011;1533;44.816;20.420;2023-04-23T03:51:41;15.23;;;11.67;;
3046;SDS011;1533;44.816;20.420;2023-04-23T03:54:30;19.73;;;10.10;;
3046;SDS011;1533;44.816;20.420;2023-04-23T03:56:57;18.43;;;10.70;;
3046;SDS011;1533;44.816;20.420;2023-04-23T03:59:32;16.63;;;10.37;;
